createdAt,value
2023-04-23T00:00:33.126Z,62.32
2023-04-23T00:03:31.389Z,61.75
2023-04-23T00:06:08.901Z,59.45
2023-04-23T00:08:48.942Z,56.98
2023-04-23T00:11:22.933Z,56.72
2023-04-23T00:14:04.280Z,57.30
2023-04-23T00:16:39.044Z,57.20
2023-04-23T00:19:13.066Z,57.58
2023-04-23T00:22:17.193Z,57.84
2023-04-23T00:24:51.912Z,58.23
2023-04-23T00:27:26.324Z,58.98
2023-04-23T00:30:07.058Z,59.36
2023-04-23T00:32:41.572Z,59.26
2023-04-23T00:35:21.115Z,58.49
2023-04-23T00:38:03.554Z,60.06
2023-04-23T00:40:37.694Z,60.55
2023-04-23T00:43:12.375Z,62.35
2023-04-23T00:45:46.765Z,64.30
2023-04-23T00:48:20.829Z,64.29
2023-04-23T00:50:56.980Z,63.50
2023-04-23T00:53:31.093Z,62.80
2023-04-23T00:56:07.568Z,61.84
2023-04-23T00:58:41.979Z,59.97
2023-04-23T01:01:22.573Z,58.33
2023-04-23T01:03:57.195Z,57.93
2023-04-23T01:06:36.501Z,57.99
2023-04-23T01:09:13.959Z,58.54
2023-04-23T01:11:58.246Z,59.03
2023-04-23T01:14:37.390Z,59.68
2023-04-23T01:17:19.575Z,60.24
2023-04-23T01:20:04.946Z,61.96
2023-04-23T01:23:04.355Z,64.39
2023-04-23T01:25:45.226Z,64.64
2023-04-23T01:28:27.176Z,63.93
2023-04-23T01:31:17.955Z,63.45
2023-04-23T01:33:57.151Z,63.01
2023-04-23T01:36:43.373Z,62.43
2023-04-23T01:39:31.994Z,61.64
2023-04-23T01:42:11.837Z,61.61
2023-04-23T01:44:47.897Z,61.21
2023-04-23T01:47:26.930Z,60.80
2023-04-23T01:50:13.116Z,59.12
2023-04-23T01:52:51.781Z,57.08
2023-04-23T01:55:43.225Z,57.25
2023-04-23T01:58:19.209Z,57.22
2023-04-23T02:00:59.873Z,56.60
2023-04-23T02:03:47.316Z,58.56
2023-04-23T02:06:30.828Z,57.96
2023-04-23T02:09:08.421Z,60.11
2023-04-23T02:11:57.893Z,62.27
2023-04-23T02:14:34.877Z,64.62
2023-04-23T02:17:26.822Z,64.74
2023-04-23T02:20:03.677Z,64.18
2023-04-23T02:22:41.203Z,63.32
2023-04-23T02:25:31.051Z,62.52
2023-04-23T02:28:08.553Z,61.78
2023-04-23T02:30:55.275Z,61.02
2023-04-23T02:33:39.003Z,59.38
2023-04-23T02:36:23.338Z,57.38
2023-04-23T02:39:05.847Z,57.17
2023-04-23T02:41:56.961Z,57.62
2023-04-23T02:44:33.725Z,58.21
2023-04-23T02:47:25.422Z,59.04
2023-04-23T02:50:19.947Z,59.29
2023-04-23T02:53:01.320Z,59.68
2023-04-23T02:55:38.407Z,60.43
2023-04-23T02:58:30.228Z,62.28
2023-04-23T03:01:13.102Z,64.48
2023-04-23T03:03:50.438Z,64.23
2023-04-23T03:06:52.112Z,63.38
2023-04-23T03:09:43.915Z,62.66
2023-04-23T03:12:13.328Z,62.00
2023-04-23T03:15:02.899Z,60.89
2023-04-23T03:17:56.170Z,58.44
2023-04-23T03:21:14.301Z,56.79
2023-04-23T03:23:56.463Z,56.60
2023-04-23T03:26:35.517Z,57.51
2023-04-23T03:29:14.139Z,58.31
2023-04-23T03:32:08.443Z,59.11
2023-04-23T03:34:51.142Z,59.41
2023-04-23T03:37:41.220Z,60.50
2023-04-23T03:40:33.155Z,62.39
2023-04-23T03:43:15.965Z,64.45
2023-04-23T03:46:08.532Z,64.11
2023-04-23T03:48:53.884Z,63.29
2023-04-23T03:51:59.329Z,62.26
2023-04-23T03:54:49.620Z,61.45
2023-04-23T03:57:43.200Z,59.40
2023-04-23T04:00:39.419Z,57.29
2023-04-23T04:03:46.205Z,57.88
2023-04-23T04:06:38.025Z,58.41
2023-04-23T04:09:22.270Z,58.90
2023-04-23T04:12:15.201Z,60.16
2023-04-23T04:14:57.530Z,60.67
2023-04-23T04:17:53.201Z,63.23
2023-04-23T04:20:44.458Z,64.78
2023-04-23T04:23:47.250Z,64.26
2023-04-23T04:26:39.487Z,63.41
2023-04-23T04:29:13.508Z,62.69
2023-04-23T04:31:45.099Z,61.41
2023-04-23T04:34:23.868Z,60.75
2023-04-23T04:37:01.552Z,59.18
2023-04-23T04:39:41.821Z,57.60
2023-04-23T04:42:13.360Z,57.59
2023-04-23T04:44:47.165Z,58.10
2023-04-23T04:47:16.475Z,58.69
2023-04-23T04:49:47.720Z,59.35
2023-04-23T04:52:17.208Z,60.20
2023-04-23T04:54:51.116Z,61.76
2023-04-23T04:57:21.641Z,63.16
2023-04-23T04:59:52.793Z,63.01
2023-04-23T05:02:23.589Z,63.39
2023-04-23T05:04:55.272Z,61.82
2023-04-23T05:07:32.565Z,61.08
2023-04-23T05:10:01.347Z,58.85
2023-04-23T05:12:30.132Z,57.51
2023-04-23T05:15:09.895Z,57.52
2023-04-23T05:17:41.589Z,57.71
2023-04-23T05:20:11.238Z,58.40
2023-04-23T05:22:42.690Z,58.98
2023-04-23T05:25:15.076Z,59.32
2023-04-23T05:27:46.713Z,59.36
2023-04-23T05:30:15.704Z,59.42
2023-04-23T05:32:47.182Z,60.11
2023-04-23T05:35:16.553Z,60.39
2023-04-23T05:37:45.048Z,60.40
2023-04-23T05:40:13.819Z,61.02
2023-04-23T05:42:42.406Z,60.77
2023-04-23T05:45:11.577Z,60.83
2023-04-23T05:47:42.490Z,61.16
2023-04-23T05:50:11.943Z,61.20
2023-04-23T05:52:40.305Z,60.85
2023-04-23T05:55:10.143Z,60.91
2023-04-23T05:57:39.528Z,60.94
2023-04-23T06:00:17.322Z,61.19
2023-04-23T06:02:48.276Z,61.03
2023-04-23T06:05:17.049Z,60.94
2023-04-23T06:07:46.127Z,60.87
2023-04-23T06:10:20.252Z,61.08
2023-04-23T06:12:49.536Z,60.96
2023-04-23T06:15:21.193Z,61.33
2023-04-23T06:17:49.801Z,61.31
2023-04-23T06:20:21.125Z,61.23
2023-04-23T06:22:49.804Z,60.99
2023-04-23T06:25:20.769Z,61.62
2023-04-23T06:27:49.329Z,61.14
2023-04-23T06:30:21.507Z,60.99
2023-04-23T06:32:50.598Z,60.80
2023-04-23T06:35:19.267Z,60.44
2023-04-23T06:37:56.455Z,60.23
2023-04-23T06:40:25.139Z,59.99
2023-04-23T06:42:56.046Z,59.97
2023-04-23T06:45:57.317Z,59.71
2023-04-23T06:48:26.710Z,59.70
2023-04-23T06:50:55.402Z,59.58
2023-04-23T06:53:23.879Z,59.29
2023-04-23T06:55:52.460Z,59.09
2023-04-23T06:58:22.171Z,59.04
2023-04-23T07:00:50.720Z,59.02
2023-04-23T07:03:20.367Z,58.62
2023-04-23T07:05:49.464Z,58.41
2023-04-23T07:08:17.841Z,58.31
2023-04-23T07:10:48.537Z,58.02
2023-04-23T07:13:17.569Z,57.69
2023-04-23T07:15:46.676Z,57.75
2023-04-23T07:18:15.246Z,56.78
2023-04-23T07:20:43.624Z,56.76
2023-04-23T07:23:11.898Z,56.52
2023-04-23T07:25:40.379Z,56.14
2023-04-23T07:28:11.626Z,55.22
2023-04-23T07:30:40.155Z,55.52
2023-04-23T07:33:08.988Z,55.48
2023-04-23T07:35:37.577Z,55.05
2023-04-23T07:38:05.964Z,54.94
2023-04-23T07:40:34.422Z,54.95
2023-04-23T07:43:03.114Z,55.23
2023-04-23T07:45:31.599Z,54.54
2023-04-23T07:48:02.432Z,54.37
2023-04-23T07:50:31.117Z,53.98
2023-04-23T07:52:59.493Z,53.67
2023-04-23T07:55:27.875Z,53.64
2023-04-23T07:57:56.254Z,53.35
2023-04-23T08:00:24.639Z,53.43
2023-04-23T08:02:54.268Z,53.57
2023-04-23T08:05:22.702Z,53.68
2023-04-23T08:07:51.313Z,53.44
2023-04-23T08:10:19.665Z,52.94
2023-04-23T08:12:48.044Z,52.51
2023-04-23T08:15:16.434Z,52.33
2023-04-23T08:17:45.223Z,51.87
2023-04-23T08:20:13.582Z,51.88
2023-04-23T08:22:41.724Z,52.18
2023-04-23T08:25:10.334Z,52.13
2023-04-23T08:27:39.437Z,51.31
2023-04-23T08:30:09.038Z,50.85
2023-04-23T08:32:39.011Z,50.98
2023-04-23T08:35:08.441Z,50.32
2023-04-23T08:37:36.627Z,50.34
2023-04-23T08:40:06.034Z,49.89
2023-04-23T08:42:57.453Z,49.63
2023-04-23T08:45:27.058Z,49.54
2023-04-23T08:48:51.756Z,49.36
2023-04-23T08:51:22.078Z,48.72
2023-04-23T08:53:52.680Z,48.73
2023-04-23T08:56:22.016Z,48.55
2023-04-23T08:58:51.001Z,48.77
2023-04-23T09:01:19.448Z,47.56
2023-04-23T09:03:48.645Z,47.54
2023-04-23T09:06:16.950Z,47.58
2023-04-23T09:08:46.255Z,47.29
2023-04-23T09:11:16.059Z,46.72
2023-04-23T09:13:44.241Z,46.64
2023-04-23T09:16:12.417Z,46.34
2023-04-23T09:18:40.781Z,46.48
2023-04-23T09:21:09.162Z,46.19
2023-04-23T09:23:39.761Z,46.22
2023-04-23T09:26:08.372Z,45.88
2023-04-23T09:28:37.672Z,45.61
2023-04-23T09:31:08.710Z,44.88
2023-04-23T09:33:36.890Z,44.60
2023-04-23T09:36:12.439Z,44.32
2023-04-23T09:38:41.844Z,43.15
2023-04-23T09:41:22.902Z,42.77
2023-04-23T09:43:54.169Z,43.10
2023-04-23T09:46:37.679Z,42.80
2023-04-23T09:49:08.079Z,42.18
2023-04-23T09:51:54.093Z,43.08
2023-04-23T09:54:23.781Z,42.74
2023-04-23T09:56:54.043Z,42.67
2023-04-23T09:59:45.937Z,42.65
2023-04-23T10:02:16.144Z,42.83
2023-04-23T10:04:44.791Z,42.21
2023-04-23T10:07:20.167Z,42.02
2023-04-23T10:09:48.688Z,41.80
2023-04-23T10:12:39.427Z,41.26
2023-04-23T10:15:06.509Z,41.49
2023-04-23T10:17:38.696Z,40.83
2023-04-23T10:20:10.445Z,40.32
2023-04-23T10:22:39.573Z,39.79
2023-04-23T10:25:12.159Z,38.86
2023-04-23T10:27:53.085Z,38.45
2023-04-23T10:30:23.178Z,38.83
2023-04-23T10:32:51.800Z,38.49
2023-04-23T10:35:20.281Z,38.22
2023-04-23T10:37:48.852Z,38.07
2023-04-23T10:40:22.330Z,38.14
2023-04-23T10:42:51.226Z,38.25
2023-04-23T10:47:54.383Z,38.57
2023-04-23T10:50:31.016Z,38.75
2023-04-23T10:52:59.485Z,39.30
2023-04-23T10:55:29.602Z,39.26
2023-04-23T10:58:02.949Z,39.78
2023-04-23T11:00:52.372Z,39.98
2023-04-23T11:03:44.133Z,40.03
2023-04-23T11:06:40.336Z,39.93
2023-04-23T11:09:31.226Z,40.20
2023-04-23T11:12:01.683Z,40.69
2023-04-23T11:14:38.303Z,41.25
2023-04-23T11:17:09.262Z,41.93
2023-04-23T11:19:41.919Z,42.57
2023-04-23T11:22:20.553Z,42.88
2023-04-23T11:24:50.946Z,42.85
2023-04-23T11:27:19.978Z,42.55
2023-04-23T11:29:48.144Z,41.97
2023-04-23T11:32:18.396Z,41.55
2023-04-23T11:34:48.277Z,41.62
2023-04-23T11:37:18.396Z,42.13
2023-04-23T11:39:47.765Z,42.12
2023-04-23T11:42:17.482Z,42.87
2023-04-23T11:44:46.407Z,43.05
2023-04-23T11:47:16.828Z,42.64
2023-04-23T11:49:46.228Z,42.53
2023-04-23T11:52:14.716Z,42.68
2023-04-23T11:54:43.184Z,43.09
2023-04-23T11:57:12.090Z,43.13
2023-04-23T11:59:40.600Z,42.84
2023-04-23T12:02:09.219Z,42.58
2023-04-23T12:04:40.300Z,42.37
2023-04-23T12:07:19.580Z,42.83
2023-04-23T12:09:51.564Z,41.99
2023-04-23T12:12:20.968Z,41.99
2023-04-23T12:14:49.142Z,42.55
2023-04-23T12:17:17.411Z,42.45
2023-04-23T12:19:45.686Z,42.28
2023-04-23T12:22:13.765Z,42.15
2023-04-23T12:24:51.804Z,41.69
2023-04-23T12:27:22.489Z,40.96
2023-04-23T12:30:00.289Z,40.64
2023-04-23T12:32:28.500Z,40.27
2023-04-23T12:34:57.112Z,39.96
2023-04-23T12:37:27.157Z,39.28
2023-04-23T12:39:57.059Z,38.70
2023-04-23T12:42:26.283Z,38.06
2023-04-23T12:44:57.063Z,37.23
2023-04-23T12:47:25.516Z,37.45
2023-04-23T12:49:55.398Z,37.64
2023-04-23T12:52:23.571Z,37.52
2023-04-23T12:54:56.595Z,37.97
2023-04-23T12:57:25.456Z,38.56
2023-04-23T12:59:55.223Z,38.65
2023-04-23T13:02:24.982Z,38.76
2023-04-23T13:04:59.686Z,39.93
2023-04-23T13:07:28.239Z,40.24
2023-04-23T13:09:57.612Z,40.81
2023-04-23T13:12:26.176Z,40.92
2023-04-23T13:14:54.332Z,41.16
2023-04-23T13:17:23.385Z,40.85
2023-04-23T13:19:51.599Z,40.63
2023-04-23T13:22:19.870Z,40.50
2023-04-23T13:24:48.343Z,41.12
2023-04-23T13:27:16.512Z,41.72
2023-04-23T13:29:44.969Z,42.69
2023-04-23T13:32:13.505Z,43.18
2023-04-23T13:34:42.164Z,43.40
2023-04-23T13:37:10.433Z,44.07
2023-04-23T13:39:41.678Z,44.21
2023-04-23T13:42:10.419Z,44.42
2023-04-23T13:44:38.747Z,44.60
2023-04-23T13:47:07.325Z,45.71
2023-04-23T13:49:36.215Z,46.93
2023-04-23T13:52:07.161Z,48.13
2023-04-23T13:54:39.520Z,47.96
2023-04-23T13:57:08.119Z,47.95
2023-04-23T13:59:36.276Z,48.10
2023-04-23T14:02:04.549Z,48.76
2023-04-23T14:04:32.770Z,48.31
2023-04-23T14:07:01.115Z,48.44
2023-04-23T14:09:30.200Z,48.74
2023-04-23T14:11:58.567Z,49.16
2023-04-23T14:14:26.847Z,49.11
2023-04-23T14:16:55.218Z,50.02
2023-04-23T14:19:24.012Z,51.11
2023-04-23T14:21:52.286Z,51.98
2023-04-23T14:24:28.662Z,53.32
2023-04-23T14:26:57.124Z,54.24
2023-04-23T14:29:30.217Z,56.08
2023-04-23T14:31:58.383Z,57.52
2023-04-23T14:34:27.282Z,58.43
2023-04-23T14:36:55.649Z,59.06
2023-04-23T14:39:23.927Z,59.77
2023-04-23T14:41:52.102Z,62.15
2023-04-23T14:44:20.267Z,63.20
2023-04-23T14:46:51.227Z,61.73
2023-04-23T14:49:20.991Z,60.97
2023-04-23T14:51:51.120Z,59.46
2023-04-23T14:54:19.303Z,57.46
2023-04-23T14:56:47.449Z,57.21
2023-04-23T14:59:15.663Z,56.97
2023-04-23T15:01:44.223Z,57.32
2023-04-23T15:04:12.700Z,57.84
2023-04-23T15:06:41.091Z,58.44
2023-04-23T15:09:09.467Z,59.14
2023-04-23T15:11:39.038Z,59.71
2023-04-23T15:14:30.795Z,59.70
2023-04-23T15:16:59.090Z,60.18
2023-04-23T15:19:27.236Z,60.56
2023-04-23T15:21:55.412Z,60.33
2023-04-23T15:24:23.592Z,60.71
2023-04-23T15:26:53.606Z,60.73
2023-04-23T15:29:21.775Z,60.69
2023-04-23T15:31:52.043Z,60.60
2023-04-23T15:34:20.273Z,61.07
2023-04-23T15:36:48.350Z,61.31
2023-04-23T15:39:16.636Z,60.85
2023-04-23T15:41:46.208Z,60.45
2023-04-23T15:44:14.704Z,60.18
2023-04-23T15:46:42.772Z,59.09
2023-04-23T15:49:10.946Z,58.76
2023-04-23T15:51:39.015Z,58.28
2023-04-23T15:54:08.803Z,57.44
2023-04-23T15:56:37.362Z,56.43
2023-04-23T15:59:06.153Z,55.98
2023-04-23T16:01:34.642Z,55.91
2023-04-23T16:06:34.086Z,54.82
2023-04-23T16:09:03.800Z,54.15
2023-04-23T16:11:32.066Z,53.55
2023-04-23T16:14:00.242Z,53.60
2023-04-23T16:16:28.954Z,53.76
2023-04-23T16:18:57.819Z,53.98
2023-04-23T16:21:28.140Z,53.90
2023-04-23T16:23:56.306Z,53.98
2023-04-23T16:26:24.806Z,54.08
2023-04-23T16:29:05.395Z,54.56
2023-04-23T16:31:40.637Z,54.68
2023-04-23T16:34:08.870Z,55.26
2023-04-23T16:36:37.346Z,55.52
2023-04-23T16:39:05.834Z,55.95
2023-04-23T16:41:34.122Z,56.59
2023-04-23T16:44:02.379Z,57.02
2023-04-23T16:46:31.802Z,57.11
2023-04-23T16:49:00.490Z,57.43
2023-04-23T16:51:29.908Z,57.46
2023-04-23T16:53:58.248Z,58.18
2023-04-23T16:56:26.818Z,58.10
2023-04-23T16:58:54.991Z,58.41
2023-04-23T17:01:23.084Z,58.66
2023-04-23T17:03:51.481Z,58.96
2023-04-23T17:06:28.322Z,59.33
2023-04-23T17:08:58.196Z,59.89
2023-04-23T17:11:27.626Z,60.15
2023-04-23T17:13:56.716Z,60.47
2023-04-23T17:16:28.047Z,60.54
2023-04-23T17:18:57.469Z,60.92
2023-04-23T17:21:26.149Z,60.74
2023-04-23T17:23:54.444Z,61.25
2023-04-23T17:26:22.598Z,61.34
2023-04-23T17:28:51.181Z,61.88
2023-04-23T17:31:19.482Z,63.10
2023-04-23T17:33:49.630Z,63.90
2023-04-23T17:36:17.950Z,63.64
2023-04-23T17:38:46.461Z,63.42
2023-04-23T17:41:14.916Z,61.97
2023-04-23T17:43:43.199Z,60.34
2023-04-23T17:46:11.441Z,58.79
2023-04-23T17:48:40.868Z,58.63
2023-04-23T17:51:09.041Z,59.09
2023-04-23T17:53:37.211Z,59.52
2023-04-23T17:56:05.696Z,59.72
2023-04-23T17:58:35.883Z,60.49
2023-04-23T18:01:04.306Z,61.18
2023-04-23T18:03:32.658Z,62.37
2023-04-23T18:06:01.399Z,63.44
2023-04-23T18:08:30.578Z,63.19
2023-04-23T18:10:59.550Z,62.86
2023-04-23T18:13:27.703Z,62.40
2023-04-23T18:15:56.492Z,61.74
2023-04-23T18:18:24.760Z,60.28
2023-04-23T18:20:53.041Z,58.71
2023-04-23T18:23:22.276Z,58.64
2023-04-23T18:25:50.825Z,59.14
2023-04-23T18:28:19.099Z,59.66
2023-04-23T18:30:47.804Z,60.27
2023-04-23T18:33:16.739Z,60.86
2023-04-23T18:35:48.322Z,62.69
2023-04-23T18:38:32.438Z,64.20
2023-04-23T18:41:02.993Z,64.02
2023-04-23T18:43:34.663Z,63.41
2023-04-23T18:46:02.968Z,62.68
2023-04-23T18:48:34.064Z,62.22
2023-04-23T18:51:13.633Z,61.74
2023-04-23T18:53:41.776Z,61.58
2023-04-23T18:56:10.357Z,60.93
2023-04-23T18:58:38.528Z,60.69
2023-04-23T19:01:06.871Z,59.43
2023-04-23T19:03:35.273Z,58.40
2023-04-23T19:06:07.851Z,58.68
2023-04-23T19:08:36.223Z,59.03
2023-04-23T19:11:05.037Z,59.89
2023-04-23T19:13:33.294Z,60.47
2023-04-23T19:16:01.595Z,62.10
2023-04-23T19:18:30.057Z,63.86
2023-04-23T19:20:58.735Z,63.81
2023-04-23T19:23:26.902Z,63.54
2023-04-23T19:25:55.088Z,63.12
2023-04-23T19:28:24.670Z,62.69
2023-04-23T19:30:53.085Z,62.31
2023-04-23T19:33:21.336Z,61.89
2023-04-23T19:35:49.617Z,61.49
2023-04-23T19:38:18.203Z,61.08
2023-04-23T19:40:46.570Z,59.83
2023-04-23T19:43:15.056Z,58.76
2023-04-23T19:45:43.222Z,59.02
2023-04-23T19:48:11.497Z,59.81
2023-04-23T19:50:39.907Z,61.68
2023-04-23T19:53:08.150Z,63.98
2023-04-23T19:55:36.542Z,64.15
2023-04-23T19:58:07.263Z,63.57
2023-04-23T20:00:41.671Z,62.93
2023-04-23T20:03:10.622Z,62.69
2023-04-23T20:05:39.352Z,62.48
2023-04-23T20:08:14.905Z,62.47
2023-04-23T20:10:43.478Z,62.60
2023-04-23T20:13:11.969Z,62.24
2023-04-23T20:15:40.553Z,62.14
2023-04-23T20:18:08.879Z,61.23
2023-04-23T20:20:37.808Z,60.82
2023-04-23T20:23:05.982Z,60.66
2023-04-23T20:25:36.547Z,60.45
2023-04-23T20:28:05.393Z,60.40
2023-04-23T20:30:33.460Z,60.33
2023-04-23T20:33:01.679Z,59.23
2023-04-23T20:35:31.758Z,58.13
2023-04-23T20:38:01.056Z,58.68
2023-04-23T20:40:34.789Z,59.47
2023-04-23T20:43:04.774Z,61.40
2023-04-23T20:45:34.834Z,63.47
2023-04-23T20:48:03.885Z,63.77
2023-04-23T20:50:32.361Z,63.41
2023-04-23T20:53:00.528Z,63.07
2023-04-23T20:55:28.710Z,62.66
2023-04-23T20:57:56.987Z,62.56
2023-04-23T21:00:25.256Z,62.26
2023-04-23T21:02:54.009Z,61.93
2023-04-23T21:05:22.332Z,61.79
2023-04-23T21:07:51.000Z,61.66
2023-04-23T21:10:19.481Z,61.51
2023-04-23T21:12:47.669Z,61.27
2023-04-23T21:15:16.953Z,61.09
2023-04-23T21:17:45.053Z,60.95
2023-04-23T21:20:13.805Z,60.82
2023-04-23T21:22:41.872Z,60.64
2023-04-23T21:25:10.148Z,60.60
2023-04-23T21:27:38.425Z,60.49
2023-04-23T21:30:14.450Z,60.53
2023-04-23T21:32:42.809Z,60.45
2023-04-23T21:35:11.029Z,60.19
2023-04-23T21:37:39.212Z,60.13
2023-04-23T21:40:10.891Z,58.88
2023-04-23T21:42:39.337Z,57.64
2023-04-23T21:45:08.815Z,58.20
2023-04-23T21:47:37.152Z,59.00
2023-04-23T21:50:06.107Z,60.04
2023-04-23T21:52:34.376Z,62.04
2023-04-23T21:55:02.452Z,64.02
2023-04-23T21:57:30.823Z,63.95
2023-04-23T21:59:59.113Z,63.60
2023-04-23T22:02:27.485Z,63.20
2023-04-23T22:04:56.067Z,62.72
2023-04-23T22:07:24.439Z,62.32
2023-04-23T22:09:52.709Z,61.90
2023-04-23T22:12:20.886Z,61.80
2023-04-23T22:14:48.954Z,61.75
2023-04-23T22:17:19.038Z,61.47
2023-04-23T22:19:47.352Z,61.31
2023-04-23T22:22:15.724Z,61.83
2023-04-23T22:24:43.791Z,60.81
2023-04-23T22:27:12.065Z,60.43
2023-04-23T22:29:40.428Z,60.29
2023-04-23T22:32:08.945Z,60.31
2023-04-23T22:34:37.198Z,60.16
2023-04-23T22:37:05.672Z,60.11
2023-04-23T22:39:33.744Z,60.17
2023-04-23T22:42:03.148Z,60.16
2023-04-23T22:44:31.434Z,60.12
2023-04-23T22:46:59.595Z,60.18
2023-04-23T22:49:27.668Z,60.69
2023-04-23T22:51:55.836Z,61.45
2023-04-23T22:54:24.311Z,62.12
2023-04-23T22:56:53.307Z,63.03
2023-04-23T22:59:21.784Z,63.76
2023-04-23T23:01:49.877Z,64.61
2023-04-23T23:04:18.081Z,65.76
2023-04-23T23:06:46.724Z,65.92
2023-04-23T23:09:14.884Z,67.04
2023-04-23T23:11:43.067Z,67.18
2023-04-23T23:14:11.741Z,66.89
2023-04-23T23:16:40.735Z,66.71
2023-04-23T23:19:08.905Z,67.17
2023-04-23T23:21:37.083Z,67.21
2023-04-23T23:24:05.352Z,67.71
2023-04-23T23:26:33.525Z,67.63
2023-04-23T23:29:01.718Z,67.82
2023-04-23T23:31:29.881Z,68.06
2023-04-23T23:33:58.553Z,67.95
2023-04-23T23:36:28.160Z,67.93
2023-04-23T23:38:56.233Z,67.99
2023-04-23T23:41:24.509Z,67.89
2023-04-23T23:43:53.375Z,67.83
2023-04-23T23:46:21.646Z,68.33
2023-04-23T23:48:49.840Z,68.56
2023-04-23T23:51:18.319Z,68.53
2023-04-23T23:53:46.499Z,68.91
2023-04-23T23:56:14.675Z,68.99
2023-04-23T23:58:42.733Z,69.05
